Time;durP1;ratioP1;P1;durP2;ratioP2;P2;SDS_P1;SDS_P2;PMS_P1;PMS_P2;Temp;Humidity;BMP_temperature;BMP_pressure;BME280_temperature;BME280_humidity;BME280_pressure;Samples;Min_cycle;Max_cycle;Signal;HPM_P1;HPM_P2
2021/08/24 00:01:29;;;;;;;0.40;0.40;;;;;;;20.56;45.47;98413.69;6244731;23;20357;-71
2021/08/24 00:03:55;;;;;;;0.70;0.55;;;;;;;20.52;45.66;98413.47;6244335;23;20016;-70
2021/08/24 00:06:21;;;;;;;0.65;0.50;;;;;;;20.49;45.51;98408.50;6244647;23;20090;-69
2021/08/24 00:08:46;;;;;;;0.52;0.52;;;;;;;20.47;45.58;98410.78;6244965;23;20020;-71
2021/08/24 00:11:12;;;;;;;0.60;0.60;;;;;;;20.44;45.64;98401.06;6244573;23;20441;-71
2021/08/24 00:13:38;;;;;;;0.35;0.20;;;;;;;20.43;45.77;98415.34;6244853;23;20008;-72
2021/08/24 00:16:05;;;;;;;0.82;0.68;;;;;;;20.43;45.70;98401.38;6244756;23;20059;-70
2021/08/24 00:18:31;;;;;;;0.88;0.63;;;;;;;20.45;45.79;98415.84;6244748;23;20019;-72
2021/08/24 00:20:57;;;;;;;0.22;0.22;;;;;;;20.47;45.74;98411.59;6244707;23;20023;-69
2021/08/24 00:23:26;;;;;;;0.20;0.20;;;;;;;20.48;45.77;98407.69;6244921;23;20008;-70
2021/08/24 00:25:54;;;;;;;0.30;0.30;;;;;;;20.52;45.71;98405.09;6244932;23;20012;-73
2021/08/24 00:28:21;;;;;;;0.75;0.75;;;;;;;20.56;45.72;98413.69;6244787;23;20000;-73
2021/08/24 00:30:47;;;;;;;2.05;0.75;;;;;;;20.58;45.52;98408.59;6244362;23;20012;-73
2021/08/24 00:33:13;;;;;;;0.32;0.32;;;;;;;20.61;45.68;98417.19;6244374;23;20012;-72
2021/08/24 00:35:41;;;;;;;0.65;0.45;;;;;;;20.67;45.55;98408.72;6245278;23;20008;-69
2021/08/24 00:38:09;;;;;;;0.75;0.70;;;;;;;20.73;45.60;98413.06;6246782;23;20008;-70
2021/08/24 00:40:35;;;;;;;0.90;0.52;;;;;;;20.77;45.41;98425.25;6246851;23;20016;-72
2021/08/24 00:43:01;;;;;;;1.75;0.75;;;;;;;20.84;45.22;98431.25;6246963;23;20065;-72
2021/08/24 00:45:27;;;;;;;0.52;0.52;;;;;;;20.92;44.98;98422.16;6246773;23;20488;-71
2021/08/24 00:47:53;;;;;;;0.40;0.40;;;;;;;20.99;44.75;98413.34;6246655;23;20012;-72
2021/08/24 00:50:27;;;;;;;1.10;0.57;;;;;;;21.05;44.83;98414.88;6247037;23;20437;-72
2021/08/24 00:52:55;;;;;;;;;;;;;;;21.12;44.55;98420.84;6247291;23;20012;-72
2021/08/24 00:55:22;;;;;;;0.20;0.20;;;;;;;21.17;44.32;98417.09;6247020;23;19911;-73
2021/08/24 00:57:56;;;;;;;0.47;0.38;;;;;;;21.26;44.11;98417.19;6219845;23;20460;-70
2021/08/24 01:00:22;;;;;;;0.30;0.30;;;;;;;21.31;43.98;98423.47;6246787;23;20008;-75
2021/08/24 01:02:47;;;;;;;1.70;0.80;;;;;;;21.33;43.79;98426.81;6246251;23;20066;-81
2021/08/24 01:05:13;;;;;;;0.47;0.47;;;;;;;21.37;44.12;98423.38;6246678;23;20349;-76
2021/08/24 01:07:46;;;;;;;4.80;0.93;;;;;;;21.41;44.05;98421.59;6246206;23;20352;-76
2021/08/24 01:10:12;;;;;;;1.75;0.65;;;;;;;21.45;43.88;98423.44;6246336;23;20008;-73
2021/08/24 01:13:02;;;;;;;0.38;0.38;;;;;;;21.56;43.73;98431.59;6246301;23;20015;-72
2021/08/24 01:15:50;;;;;;;0.40;0.40;;;;;;;21.59;43.78;98426.19;6246292;23;20083;-73
2021/08/24 01:18:28;;;;;;;0.90;0.77;;;;;;;21.58;43.82;98420.94;6246388;23;20008;-73
2021/08/24 01:21:17;;;;;;;1.30;0.30;;;;;;;21.62;43.99;98406.00;6246180;23;20407;-73
2021/08/24 01:24:05;;;;;;;2.60;0.95;;;;;;;21.57;44.20;98413.69;6246094;23;20008;-74
2021/08/24 01:26:42;;;;;;;0.80;0.65;;;;;;;21.53;44.32;98414.31;6246403;23;20012;-75
2021/08/24 01:29:36;;;;;;;0.68;0.68;;;;;;;21.52;44.37;98420.22;6246480;23;20008;-76
2021/08/24 01:32:14;;;;;;;;;;;;;;;21.55;44.29;98418.78;6220108;23;20026;-75
2021/08/24 01:35:18;;;;;;;0.10;0.10;;;;;;;21.58;44.05;98410.56;6245603;23;20256;-77
2021/08/24 01:38:07;;;;;;;0.30;0.30;;;;;;;21.63;44.28;98412.44;6219271;23;20506;-75
2021/08/24 01:40:58;;;;;;;0.10;0.10;;;;;;;21.72;43.79;98424.50;6249148;23;20073;-72
2021/08/24 01:43:42;;;;;;;0.40;0.40;;;;;;;21.90;43.71;98419.84;6197158;23;20012;-75
2021/08/24 01:46:20;;;;;;;0.57;0.57;;;;;;;22.14;43.49;98421.44;6246690;23;20012;-75
2021/08/24 01:48:51;;;;;;;1.85;0.57;;;;;;;22.62;42.37;98426.28;6246140;23;20035;-74
2021/08/24 01:51:28;;;;;;;0.93;0.40;;;;;;;23.13;41.65;98423.97;6245847;23;20015;-73
2021/08/24 01:54:02;;;;;;;0.88;0.73;;;;;;;23.51;40.96;98416.88;6246059;23;20007;-73
2021/08/24 01:56:35;;;;;;;1.13;0.95;;;;;;;23.91;40.57;98425.09;6246376;23;20004;-74
2021/08/24 01:59:17;;;;;;;1.40;0.50;;;;;;;24.48;39.62;98419.16;6246164;23;20349;-72
2021/08/24 02:01:51;;;;;;;0.38;0.28;;;;;;;24.89;39.21;98422.44;6246115;23;20047;-73
2021/08/24 02:04:24;;;;;;;;;;;;;;;25.68;38.09;98413.44;6246064;23;20015;-74
2021/08/24 02:06:50;;;;;;;0.43;0.35;;;;;;;26.98;36.07;98432.00;6245904;23;20237;-72
2021/08/24 02:09:24;;;;;;;1.52;0.50;;;;;;;28.19;34.80;98411.38;6245766;23;20014;-69
2021/08/24 02:11:52;;;;;;;0.40;0.40;;;;;;;29.23;33.53;98406.72;6245837;23;20019;-70
2021/08/24 02:14:19;;;;;;;0.22;0.22;;;;;;;30.28;32.71;98410.47;6245551;23;20016;-69
2021/08/24 02:16:48;;;;;;;0.40;0.25;;;;;;;31.31;31.68;98415.41;6245527;23;20004;-70
2021/08/24 02:19:23;;;;;;;0.20;0.17;;;;;;;32.15;30.83;98429.47;6245922;23;20008;-69
2021/08/24 02:21:55;;;;;;;0.30;0.30;;;;;;;32.53;31.01;98423.75;6245664;23;20004;-70
2021/08/24 02:24:27;;;;;;;1.75;0.75;;;;;;;31.63;32.47;98436.94;6218940;23;20008;-70
2021/08/24 02:26:56;;;;;;;1.45;0.30;;;;;;;30.32;34.54;98442.50;6245604;23;20004;-70
2021/08/24 02:29:22;;;;;;;0.28;0.28;;;;;;;30.21;34.79;98449.97;6245611;23;20015;-70
2021/08/24 02:31:59;;;;;;;0.20;0.20;;;;;;;31.32;33.35;98442.56;6245460;23;20016;-69
2021/08/24 02:34:55;;;;;;;3.65;0.47;;;;;;;32.40;32.10;98435.41;6245487;23;20445;-70
2021/08/24 02:37:45;;;;;;;0.15;0.15;;;;;;;33.32;30.98;98433.75;6245531;23;20012;-70
2021/08/24 02:40:35;;;;;;;0.10;0.10;;;;;;;34.31;30.21;98435.81;6246009;23;20039;-70
2021/08/24 02:43:33;;;;;;;0.40;0.35;;;;;;;33.43;31.24;98435.84;6245627;23;20016;-70
2021/08/24 02:46:10;;;;;;;1.23;0.50;;;;;;;32.07;33.59;98445.59;6245339;23;20016;-69
2021/08/24 02:48:38;;;;;;;1.02;0.30;;;;;;;31.04;35.10;98440.13;6218745;23;20023;-70
2021/08/24 02:51:06;;;;;;;0.20;0.20;;;;;;;31.33;34.82;98440.53;6245148;23;20048;-69
2021/08/24 02:53:34;;;;;;;1.88;0.65;;;;;;;32.66;32.75;98431.59;6245315;23;20015;-70
2021/08/24 02:55:59;;;;;;;4.15;0.32;;;;;;;34.57;29.90;98454.56;6245190;23;20015;-69
2021/08/24 02:58:25;;;;;;;0.15;0.15;;;;;;;36.56;28.03;98447.16;6245104;23;20016;-70
2021/08/24 03:00:51;;;;;;;0.30;0.30;;;;;;;37.74;27.08;98440.78;6244882;23;20462;-70
2021/08/24 03:03:17;;;;;;;1.08;0.35;;;;;;;38.48;26.49;98437.34;6244536;23;20027;-70
2021/08/24 03:05:43;;;;;;;0.50;0.50;;;;;;;39.02;26.20;98440.16;6245299;23;20014;-69
2021/08/24 03:08:10;;;;;;;0.20;0.20;;;;;;;39.55;25.83;98434.69;6245340;23;20044;-70
2021/08/24 03:10:39;;;;;;;1.08;0.65;;;;;;;40.22;25.45;98436.59;6245278;23;20130;-70
2021/08/24 03:13:08;;;;;;;0.35;0.35;;;;;;;39.83;26.08;98438.25;6245233;23;20452;-70
2021/08/24 03:15:41;;;;;;;1.00;0.55;;;;;;;39.67;26.46;98450.47;6245208;23;20087;-69
2021/08/24 03:18:29;;;;;;;1.50;0.60;;;;;;;39.17;27.05;98437.06;6244933;23;20004;-71
2021/08/24 03:21:00;;;;;;;0.20;0.20;;;;;;;39.11;27.24;98438.75;6244877;23;20043;-69
2021/08/24 03:23:28;;;;;;;0.38;0.38;;;;;;;37.80;28.70;98434.16;6245133;23;20012;-69
2021/08/24 03:25:54;;;;;;;0.90;0.50;;;;;;;36.04;30.60;98442.13;6218076;23;20468;-69
2021/08/24 03:28:23;;;;;;;0.65;0.22;;;;;;;34.33;33.01;98433.38;6244956;23;20019;-68
2021/08/24 03:30:50;;;;;;;0.45;0.45;;;;;;;32.87;34.43;98437.88;6244901;23;20008;-69
2021/08/24 03:33:16;;;;;;;3.15;1.20;;;;;;;32.63;34.36;98438.06;6244180;23;20058;-70
2021/08/24 03:35:42;;;;;;;1.30;1.00;;;;;;;32.64;33.98;98444.53;6245040;23;20008;-70
2021/08/24 03:38:08;;;;;;;2.28;0.65;;;;;;;31.96;34.39;98448.31;6244810;23;20012;-70
2021/08/24 03:40:35;;;;;;;1.05;0.75;;;;;;;31.26;35.26;98447.75;6245305;23;20354;-70
2021/08/24 03:43:01;;;;;;;1.63;0.95;;;;;;;30.53;36.05;98446.94;6245295;23;20012;-69
2021/08/24 03:45:27;;;;;;;0.65;0.65;;;;;;;30.17;36.12;98451.94;6244912;23;20020;-70
2021/08/24 03:47:53;;;;;;;0.63;0.25;;;;;;;30.45;35.29;98450.84;6245045;23;20008;-70
2021/08/24 03:50:20;;;;;;;0.25;0.25;;;;;;;31.29;33.95;98454.69;6244975;23;20357;-71
2021/08/24 03:52:46;;;;;;;0.57;0.57;;;;;;;32.49;31.72;98452.97;6244947;23;20008;-70
2021/08/24 03:55:12;;;;;;;7.13;0.77;;;;;;;34.18;29.65;98447.56;6244771;23;20012;-70
2021/08/24 03:57:38;;;;;;;0.40;0.40;;;;;;;33.83;30.14;98451.09;6244950;23;20083;-68
2021/08/24 04:00:06;;;;;;;1.60;1.00;;;;;;;32.49;31.81;98438.75;6244897;23;20467;-70
2021/08/24 04:02:32;;;;;;;2.72;0.60;;;;;;;31.21;33.53;98450.94;6244799;23;20024;-70
2021/08/24 04:05:02;;;;;;;6.00;0.65;;;;;;;30.32;34.74;98439.69;6243981;23;20057;-69
2021/08/24 04:07:28;;;;;;;0.13;0.13;;;;;;;30.73;33.90;98445.69;6244765;23;20079;-70
2021/08/24 04:09:54;;;;;;;0.13;0.13;;;;;;;31.71;32.22;98450.81;6245323;23;20008;-69
2021/08/24 04:12:20;;;;;;;1.38;1.02;;;;;;;32.47;31.08;98435.47;6246938;23;20020;-70
2021/08/24 04:14:46;;;;;;;1.52;0.90;;;;;;;32.63;30.77;98448.63;6246978;23;20018;-70
2021/08/24 04:17:12;;;;;;;0.75;0.75;;;;;;;32.87;30.64;98447.22;6246778;23;20036;-70
2021/08/24 04:19:38;;;;;;;0.20;0.20;;;;;;;31.74;32.07;98452.91;6246621;23;20445;-70
2021/08/24 04:22:09;;;;;;;1.38;1.27;;;;;;;30.32;34.19;98434.00;6246780;23;20040;-70
2021/08/24 04:24:35;;;;;;;6.57;1.80;;;;;;;29.26;35.91;98449.19;6246880;23;20406;-69
2021/08/24 04:27:00;;;;;;;1.27;0.55;;;;;;;28.70;36.44;98443.78;6246766;23;20413;-70
2021/08/24 04:29:26;;;;;;;0.20;0.20;;;;;;;28.59;36.37;98447.13;6246522;23;20004;-70
2021/08/24 04:31:52;;;;;;;0.40;0.40;;;;;;;29.32;35.18;98447.72;6246956;23;20019;-70
2021/08/24 04:34:18;;;;;;;0.80;0.60;;;;;;;30.48;33.11;98448.09;6246312;23;20348;-70
2021/08/24 04:36:43;;;;;;;0.70;0.70;;;;;;;31.24;32.17;98452.16;6247009;23;20054;-70
2021/08/24 04:39:09;;;;;;;0.38;0.38;;;;;;;31.42;31.77;98450.41;6247364;23;20546;-69
2021/08/24 04:41:35;;;;;;;0.60;0.47;;;;;;;30.95;32.79;98454.53;6246882;23;20035;-69
2021/08/24 04:44:01;;;;;;;0.30;0.30;;;;;;;30.30;33.57;98441.25;6246592;23;20012;-71
2021/08/24 04:46:27;;;;;;;1.10;0.73;;;;;;;29.56;34.53;98442.97;6246261;23;20102;-69
2021/08/24 04:48:53;;;;;;;0.85;0.60;;;;;;;29.00;35.65;98444.13;6246494;23;20012;-68
2021/08/24 04:51:18;;;;;;;0.40;0.40;;;;;;;28.60;36.26;98448.78;6246568;23;20066;-69
2021/08/24 04:53:44;;;;;;;1.95;0.63;;;;;;;28.29;36.51;98439.09;6246743;23;20441;-71
2021/08/24 04:56:10;;;;;;;3.40;1.67;;;;;;;28.03;36.82;98441.59;6246641;23;20019;-69
2021/08/24 04:58:36;;;;;;;3.47;1.27;;;;;;;27.94;36.67;98453.00;6246915;23;20020;-69
2021/08/24 05:01:01;;;;;;;3.83;1.52;;;;;;;27.81;36.78;98466.34;6244748;23;20115;-69
2021/08/24 05:03:27;;;;;;;0.77;0.77;;;;;;;27.70;37.19;98466.03;6217462;23;20051;-69
2021/08/24 05:05:53;;;;;;;1.58;0.85;;;;;;;27.58;37.26;98460.44;6244887;23;20004;-68
2021/08/24 05:08:19;;;;;;;1.25;0.68;;;;;;;27.54;37.31;98457.50;6245264;23;20015;-68
2021/08/24 05:10:44;;;;;;;0.40;0.40;;;;;;;27.51;37.08;98461.03;6244672;23;20089;-69
2021/08/24 05:13:10;;;;;;;1.50;1.30;;;;;;;27.33;37.51;98451.19;6244573;23;20095;-69
2021/08/24 05:15:36;;;;;;;0.75;0.70;;;;;;;27.23;37.84;98463.78;6244889;23;20035;-69
2021/08/24 05:18:01;;;;;;;0.70;0.60;;;;;;;27.05;37.81;98455.56;6244847;23;20322;-69
2021/08/24 05:20:27;;;;;;;0.77;0.77;;;;;;;26.93;38.21;98464.84;6244799;23;20000;-69
2021/08/24 05:22:53;;;;;;;1.90;0.95;;;;;;;26.84;38.44;98461.34;6245019;22;20012;-70
2021/08/24 05:25:23;;;;;;;1.20;1.10;;;;;;;26.81;38.19;98453.59;6244880;23;20016;-68
2021/08/24 05:27:48;;;;;;;0.75;0.65;;;;;;;26.81;38.02;98462.06;6244859;23;20071;-69
2021/08/24 05:30:20;;;;;;;1.55;0.60;;;;;;;26.88;37.96;98447.38;6245170;23;20102;-70
2021/08/24 05:32:47;;;;;;;1.27;0.85;;;;;;;26.92;37.78;98457.56;6244377;23;20635;-69
2021/08/24 05:35:13;;;;;;;1.55;0.75;;;;;;;26.92;37.81;98457.56;6244938;23;20078;-69
2021/08/24 05:37:39;;;;;;;3.83;1.65;;;;;;;26.93;37.79;98450.78;6244911;23;20027;-70
2021/08/24 05:40:06;;;;;;;6.97;1.05;;;;;;;26.97;37.92;98448.06;6244973;23;20015;-68
2021/08/24 05:42:31;;;;;;;9.40;2.03;;;;;;;26.99;37.96;98453.38;6244613;23;20026;-70
2021/08/24 05:44:58;;;;;;;0.95;0.70;;;;;;;27.03;37.60;98446.66;6244466;23;20040;-70
2021/08/24 05:47:25;;;;;;;0.82;0.82;;;;;;;27.12;37.57;98443.72;6244851;23;20074;-69
2021/08/24 05:49:50;;;;;;;1.77;1.02;;;;;;;27.07;37.63;98439.13;6244297;23;20008;-69
2021/08/24 05:52:16;;;;;;;0.82;0.82;;;;;;;27.03;37.75;98443.00;6244386;23;20012;-70
2021/08/24 05:54:42;;;;;;;1.25;0.90;;;;;;;27.02;37.94;98435.75;6244230;23;20082;-71
2021/08/24 05:57:08;;;;;;;0.52;0.52;;;;;;;27.08;37.68;98432.31;6244285;23;20008;-70
2021/08/24 05:59:35;;;;;;;1.90;0.65;;;;;;;27.17;37.82;98440.66;6244452;23;20083;-68
2021/08/24 06:02:01;;;;;;;3.08;1.10;;;;;;;27.26;37.62;98446.97;6244544;23;20024;-69
2021/08/24 06:04:27;;;;;;;1.17;0.93;;;;;;;27.30;37.51;98449.91;6243790;23;20429;-69
2021/08/24 06:06:52;;;;;;;0.35;0.35;;;;;;;27.33;37.51;98456.84;6244462;23;20015;-69
2021/08/24 06:09:19;;;;;;;2.40;0.77;;;;;;;27.36;37.43;98453.34;6237761;23;20341;-68
2021/08/24 06:11:50;;;;;;;1.27;1.00;;;;;;;27.37;37.88;98438.03;6238205;23;20019;-69
2021/08/24 06:14:17;;;;;;;1.27;1.17;;;;;;;27.40;37.60;98438.16;6216526;23;20051;-69
2021/08/24 06:16:43;;;;;;;1.15;0.77;;;;;;;27.43;37.87;98445.91;6242762;23;20106;-69
2021/08/24 06:19:09;;;;;;;0.35;0.35;;;;;;;27.48;37.59;98427.91;6242266;23;20483;-69
2021/08/24 06:21:36;;;;;;;0.95;0.75;;;;;;;27.57;37.42;98444.69;6242425;23;20004;-69
2021/08/24 06:24:03;;;;;;;1.95;1.05;;;;;;;27.61;37.49;98437.97;6216813;23;20012;-69
2021/08/24 06:26:29;;;;;;;3.20;1.17;;;;;;;27.67;37.56;98440.56;6243227;23;20322;-69
2021/08/24 06:28:55;;;;;;;3.25;0.45;;;;;;;27.75;37.52;98453.66;6242432;23;20018;-68
2021/08/24 06:31:25;;;;;;;1.05;0.75;;;;;;;27.83;37.41;98432.13;6242051;23;20503;-68
2021/08/24 06:33:52;;;;;;;1.05;0.93;;;;;;;27.92;37.03;98442.09;6241337;23;20047;-68
2021/08/24 06:36:18;;;;;;;1.88;0.68;;;;;;;27.96;36.93;98443.00;6242509;23;20396;-69
2021/08/24 06:38:45;;;;;;;10.73;1.58;;;;;;;27.91;37.21;98436.81;6242069;23;20031;-68
2021/08/24 06:41:13;;;;;;;0.85;0.85;;;;;;;27.89;37.42;98437.16;6242350;23;20004;-70
2021/08/24 06:43:39;;;;;;;2.08;1.10;;;;;;;27.88;37.02;98435.50;6242411;23;20015;-70
2021/08/24 06:46:05;;;;;;;3.92;1.30;;;;;;;27.87;37.32;98428.25;6242825;23;20536;-69
2021/08/24 06:48:31;;;;;;;0.30;0.30;;;;;;;27.90;37.26;98423.88;6243097;23;20012;-70
2021/08/24 06:50:57;;;;;;;3.50;0.98;;;;;;;27.94;37.26;98428.44;6242629;23;20344;-69
2021/08/24 06:53:23;;;;;;;3.05;1.38;;;;;;;27.99;37.01;98421.75;6214966;23;20062;-68
2021/08/24 06:55:49;;;;;;;1.20;0.95;;;;;;;28.09;36.95;98417.56;6242355;23;20047;-70
2021/08/24 06:58:15;;;;;;;1.52;0.32;;;;;;;28.15;37.10;98407.69;6242073;23;20008;-69
2021/08/24 07:00:44;;;;;;;1.42;0.82;;;;;;;28.21;36.76;98397.75;6242330;23;20066;-71
2021/08/24 07:03:11;;;;;;;1.42;1.13;;;;;;;28.27;36.75;98401.94;6241781;23;20016;-69
2021/08/24 07:05:42;;;;;;;1.63;0.93;;;;;;;28.34;36.86;98397.66;6215345;23;20377;-69
2021/08/24 07:08:08;;;;;;;2.05;0.80;;;;;;;28.38;36.41;98415.50;6242473;23;20036;-69
2021/08/24 07:10:34;;;;;;;2.55;0.65;;;;;;;28.42;36.55;98400.31;6241837;23;20441;-69
2021/08/24 07:13:00;;;;;;;1.95;1.50;;;;;;;28.45;36.58;98404.41;6242928;23;20323;-67
2021/08/24 07:15:25;;;;;;;1.33;1.00;;;;;;;28.54;36.60;98401.41;6242924;23;20027;-69
2021/08/24 07:17:54;;;;;;;1.48;1.00;;;;;;;28.69;36.23;98403.41;6242543;23;20016;-71
2021/08/24 07:20:21;;;;;;;0.90;0.80;;;;;;;28.87;36.17;98405.84;6242437;23;20062;-69
2021/08/24 07:22:48;;;;;;;0.45;0.45;;;;;;;29.01;35.88;98411.84;6241568;23;20011;-69
2021/08/24 07:25:18;;;;;;;0.65;0.65;;;;;;;29.23;35.88;98410.34;6242201;23;20012;-68
2021/08/24 07:27:43;;;;;;;0.75;0.70;;;;;;;29.45;35.51;98428.63;6241856;23;20011;-69
2021/08/24 07:30:10;;;;;;;1.55;0.95;;;;;;;29.68;35.24;98425.03;6242024;23;20012;-69
2021/08/24 07:32:35;;;;;;;1.38;0.73;;;;;;;30.01;34.79;98430.19;6215057;23;20016;-67
2021/08/24 07:35:02;;;;;;;0.90;0.68;;;;;;;30.35;34.44;98427.59;6241911;23;20512;-68
2021/08/24 07:37:28;;;;;;;4.38;0.95;;;;;;;30.55;34.20;98421.88;6242494;23;20099;-69
2021/08/24 07:39:54;;;;;;;3.10;1.20;;;;;;;30.61;34.35;98426.06;6242869;23;20040;-67
2021/08/24 07:42:19;;;;;;;0.77;0.43;;;;;;;30.65;34.13;98429.75;6243325;23;20457;-67
2021/08/24 07:44:45;;;;;;;0.80;0.77;;;;;;;30.65;34.34;98429.75;6242451;23;20019;-68
2021/08/24 07:47:11;;;;;;;2.55;1.05;;;;;;;30.61;34.46;98423.22;6243323;23;20424;-69
2021/08/24 07:49:38;;;;;;;0.60;0.60;;;;;;;30.58;34.56;98418.31;6242739;23;20496;-69
2021/08/24 07:52:09;;;;;;;1.80;0.88;;;;;;;30.67;34.37;98415.19;6244928;23;20016;-67
2021/08/24 07:54:37;;;;;;;1.17;0.77;;;;;;;30.74;34.27;98419.00;6243244;23;20008;-69
2021/08/24 07:57:03;;;;;;;0.73;0.73;;;;;;;30.73;34.46;98423.00;6245072;23;20015;-68
2021/08/24 07:59:29;;;;;;;0.68;0.38;;;;;;;30.79;34.18;98429.19;6245188;23;20016;-68
2021/08/24 08:01:55;;;;;;;0.70;0.70;;;;;;;30.75;34.23;98426.28;6244954;23;20050;-64
2021/08/24 08:04:26;;;;;;;1.38;0.45;;;;;;;30.61;34.59;98420.38;6244119;23;20083;-70
2021/08/24 08:06:54;;;;;;;3.00;0.68;;;;;;;30.48;34.59;98421.78;6244657;23;20364;-70
2021/08/24 08:09:20;;;;;;;2.45;0.75;;;;;;;30.40;34.83;98430.13;6244559;23;20012;-69
2021/08/24 08:11:48;;;;;;;1.80;0.73;;;;;;;30.35;34.86;98424.75;6244810;23;20012;-71
2021/08/24 08:14:14;;;;;;;3.00;0.77;;;;;;;30.28;35.10;98435.94;6244889;23;20008;-71
2021/08/24 08:16:40;;;;;;;1.15;1.05;;;;;;;30.20;35.30;98445.53;6243407;23;20000;-69
2021/08/24 08:19:06;;;;;;;0.50;0.50;;;;;;;30.21;35.10;98444.31;6244699;23;20012;-70
2021/08/24 08:21:35;;;;;;;1.33;0.85;;;;;;;30.17;35.22;98434.94;6244633;23;20468;-69
2021/08/24 08:24:01;;;;;;;1.60;0.38;;;;;;;30.10;35.13;98444.13;6245108;23;20005;-71
2021/08/24 08:26:28;;;;;;;0.70;0.55;;;;;;;30.06;35.10;98434.72;6217947;23;20018;-69
2021/08/24 08:28:55;;;;;;;2.38;1.35;;;;;;;29.95;35.40;98443.03;6218169;23;20391;-70
2021/08/24 08:31:23;;;;;;;1.88;0.68;;;;;;;29.94;35.22;98446.22;6237608;23;20012;-69
2021/08/24 08:33:49;;;;;;;1.23;0.65;;;;;;;30.00;35.29;98451.19;6242256;23;20008;-69
2021/08/24 08:36:15;;;;;;;0.95;0.43;;;;;;;30.04;35.00;98445.63;6243514;23;20008;-68
2021/08/24 08:38:41;;;;;;;0.88;0.55;;;;;;;30.06;34.89;98457.38;6243429;23;20437;-69
2021/08/24 08:41:17;;;;;;;0.20;0.20;;;;;;;29.99;35.15;98445.91;6242437;23;20008;-67
2021/08/24 08:44:09;;;;;;;1.65;1.08;;;;;;;29.96;35.20;98450.31;6239388;23;20437;-65
2021/08/24 08:46:52;;;;;;;0.68;0.45;;;;;;;29.91;35.21;98432.81;6240413;23;20012;-68
2021/08/24 08:49:26;;;;;;;0.28;0.28;;;;;;;29.87;34.98;98441.22;6241583;23;20019;-67
2021/08/24 08:52:11;;;;;;;0.28;0.20;;;;;;;29.89;35.14;98427.53;6241407;23;20016;-69
2021/08/24 08:54:54;;;;;;;0.75;0.75;;;;;;;29.91;35.05;98436.47;6242131;23;20111;-68
2021/08/24 08:57:31;;;;;;;0.32;0.32;;;;;;;29.89;35.08;98424.72;6242771;23;20509;-69
2021/08/24 09:00:17;;;;;;;0.88;0.85;;;;;;;29.89;35.21;98430.38;6243587;23;20123;-67
2021/08/24 09:02:50;;;;;;;1.20;0.80;;;;;;;29.85;34.93;98432.31;6242995;23;20365;-70
2021/08/24 09:05:20;;;;;;;0.57;0.57;;;;;;;29.84;35.02;98427.81;6243551;23;20011;-68
2021/08/24 09:07:51;;;;;;;0.40;0.40;;;;;;;29.79;35.03;98430.94;6243665;23;20035;-66
2021/08/24 09:10:30;;;;;;;0.55;0.55;;;;;;;29.71;35.25;98425.13;6243324;23;20019;-67
2021/08/24 09:13:04;;;;;;;1.02;0.80;;;;;;;29.63;35.20;98429.00;6243345;23;20085;-68
2021/08/24 09:15:53;;;;;;;3.35;0.95;;;;;;;29.53;35.26;98427.59;6243577;23;20008;-66
2021/08/24 09:18:37;;;;;;;0.70;0.70;;;;;;;29.54;35.41;98431.22;6225079;23;20409;-70
2021/08/24 09:21:05;;;;;;;1.92;1.23;;;;;;;29.58;35.25;98429.31;6243409;23;20042;-70
2021/08/24 09:23:31;;;;;;;0.85;0.85;;;;;;;29.69;34.93;98430.31;6243044;23;20059;-68
2021/08/24 09:26:39;;;;;;;1.15;0.57;;;;;;;29.79;34.99;98428.13;6243352;23;20433;-68
2021/08/24 09:29:07;;;;;;;1.77;0.88;;;;;;;29.86;34.82;98433.94;6243193;23;20020;-67
2021/08/24 09:31:35;;;;;;;0.60;0.60;;;;;;;29.92;34.50;98440.94;6243444;23;20344;-69
2021/08/24 09:34:02;;;;;;;1.42;1.25;;;;;;;29.96;34.61;98439.00;6242304;23;20008;-67
2021/08/24 09:36:28;;;;;;;2.20;0.95;;;;;;;29.98;34.48;98442.28;6242967;23;20291;-69
2021/08/24 09:38:57;;;;;;;1.83;0.75;;;;;;;30.02;34.57;98429.00;6240881;23;20019;-69
2021/08/24 09:41:27;;;;;;;3.60;0.40;;;;;;;30.06;34.50;98426.22;6241946;23;20444;-72
2021/08/24 09:43:55;;;;;;;0.88;0.77;;;;;;;30.10;34.61;98431.97;6241157;23;20008;-72
2021/08/24 09:46:21;;;;;;;1.77;0.85;;;;;;;30.13;34.40;98436.88;6241780;23;20110;-70
2021/08/24 09:48:55;;;;;;;0.65;0.65;;;;;;;30.13;34.37;98420.72;6241585;23;20114;-71
2021/08/24 09:52:00;;;;;;;0.40;0.40;;;;;;;30.14;34.36;98418.69;6241370;23;20012;-67
2021/08/24 09:54:33;;;;;;;0.30;0.20;;;;;;;30.10;34.49;98424.28;6118780;23;20017;-68
2021/08/24 09:57:06;;;;;;;0.50;0.47;;;;;;;30.08;34.36;98412.53;6225078;23;20025;-68
2021/08/24 09:59:55;;;;;;;2.47;0.30;;;;;;;30.11;34.40;98410.94;6241248;23;20478;-68
2021/08/24 10:02:42;;;;;;;1.17;0.75;;;;;;;30.16;34.21;98405.81;6220031;23;20024;-69
2021/08/24 10:05:13;;;;;;;0.52;0.52;;;;;;;30.17;34.17;98404.63;6214213;23;20353;-67
2021/08/24 10:07:40;;;;;;;2.75;0.45;;;;;;;30.18;34.15;98420.41;6241365;23;20092;-68
2021/08/24 10:10:27;;;;;;;0.43;0.43;;;;;;;30.22;34.03;98407.13;6241935;23;20000;-67
2021/08/24 10:12:54;;;;;;;0.63;0.63;;;;;;;30.27;34.05;98416.50;6242135;23;20091;-67
2021/08/24 10:15:27;;;;;;;1.38;1.27;;;;;;;30.31;34.03;98411.72;6242457;23;20012;-67
2021/08/24 10:18:12;;;;;;;0.95;0.43;;;;;;;30.34;33.83;98408.94;6242538;23;20008;-69
2021/08/24 10:20:52;;;;;;;1.08;0.38;;;;;;;30.40;33.81;98401.81;6215281;23;20440;-70
2021/08/24 10:23:28;;;;;;;0.93;0.93;;;;;;;30.36;33.80;98397.25;6241939;23;20008;-71
2021/08/24 10:25:59;;;;;;;0.90;0.68;;;;;;;30.38;33.74;98404.16;6242493;23;20016;-70
2021/08/24 10:28:28;;;;;;;0.98;0.63;;;;;;;30.45;33.68;98403.53;6242452;23;20011;-70
2021/08/24 10:30:57;;;;;;;0.43;0.35;;;;;;;30.51;33.51;98418.19;6242379;23;20012;-66
2021/08/24 10:33:25;;;;;;;0.60;0.35;;;;;;;30.55;33.61;98419.03;6241487;23;20016;-66
2021/08/24 10:35:57;;;;;;;1.48;0.95;;;;;;;30.60;33.47;98410.25;6242520;23;20008;-64
2021/08/24 10:38:48;;;;;;;0.63;0.40;;;;;;;30.63;33.32;98403.00;6239572;23;20019;-68
2021/08/24 10:41:21;;;;;;;1.15;0.55;;;;;;;30.61;33.24;98405.38;6242064;23;20011;-72
2021/08/24 10:43:53;;;;;;;0.70;0.30;;;;;;;30.56;33.58;98398.84;6241803;23;20340;-69
2021/08/24 10:46:20;;;;;;;1.17;0.68;;;;;;;30.54;33.55;98401.25;6241962;23;20468;-73
2021/08/24 10:48:46;;;;;;;2.58;0.40;;;;;;;30.54;33.54;98394.78;6215856;23;20077;-73
2021/08/24 10:51:20;;;;;;;0.55;0.55;;;;;;;30.57;33.43;98394.81;6240731;23;20304;-78
2021/08/24 10:54:28;;;;;;;1.27;0.38;;;;;;;30.65;33.37;98384.41;6240125;23;20008;-74
2021/08/24 10:57:13;;;;;;;0.98;0.30;;;;;;;30.69;33.39;98393.78;6220067;23;20035;-76
2021/08/24 11:00:28;;;;;;;0.30;0.30;;;;;;;30.69;33.16;98388.13;6241064;23;20079;-67
2021/08/24 11:03:31;;;;;;;0.82;0.82;;;;;;;30.68;33.15;98383.69;6239683;23;20047;-68
2021/08/24 11:06:26;;;;;;;0.38;0.28;;;;;;;30.68;33.38;98378.00;6237855;23;20146;-69
2021/08/24 11:09:32;;;;;;;1.42;0.88;;;;;;;30.60;33.48;98376.25;6239689;23;20008;-72
2021/08/24 11:12:19;;;;;;;0.30;0.30;;;;;;;30.43;33.80;98383.25;6238684;23;20087;-70
2021/08/24 11:15:22;;;;;;;0.70;0.47;;;;;;;30.23;33.95;98371.97;6240095;23;20012;-69
2021/08/24 11:17:57;;;;;;;0.65;0.55;;;;;;;30.10;34.30;98369.69;6241251;23;20016;-69
2021/08/24 11:20:52;;;;;;;1.20;0.65;;;;;;;30.11;34.13;98374.16;6240269;23;20039;-71
2021/08/24 11:24:05;;;;;;;0.20;0.20;;;;;;;30.15;33.99;98373.03;6188735;23;20083;-70
2021/08/24 11:26:47;;;;;;;1.13;0.63;;;;;;;30.21;33.96;98367.84;6213829;23;20345;-71
2021/08/24 11:29:24;;;;;;;3.72;1.05;;;;;;;30.29;33.73;98383.78;6242441;23;20445;-72
2021/08/24 11:32:17;;;;;;;1.45;0.40;;;;;;;30.38;33.67;98375.84;6241604;23;20094;-68
2021/08/24 11:35:11;;;;;;;0.70;0.40;;;;;;;30.39;33.66;98374.66;6209370;23;20095;-67
2021/08/24 11:37:50;;;;;;;0.45;0.35;;;;;;;30.28;33.65;98376.47;6230429;23;20023;-69
2021/08/24 11:40:43;;;;;;;0.35;0.35;;;;;;;30.18;34.13;98371.44;6242019;23;20012;-69
2021/08/24 11:43:14;;;;;;;1.05;0.82;;;;;;;30.09;33.97;98370.88;6242071;23;20074;-69
2021/08/24 11:45:47;;;;;;;0.50;0.50;;;;;;;30.05;34.25;98368.00;6241503;23;20016;-70
2021/08/24 11:48:22;;;;;;;0.38;0.38;;;;;;;30.08;34.23;98372.06;6241964;23;20008;-70
2021/08/24 11:51:00;;;;;;;1.75;0.60;;;;;;;30.17;34.13;98376.31;6242652;23;20008;-70
2021/08/24 11:53:51;;;;;;;0.50;0.50;;;;;;;30.32;33.81;98365.22;6241126;23;20127;-68
2021/08/24 11:56:22;;;;;;;0.68;0.68;;;;;;;30.46;33.67;98364.69;6242934;23;20360;-71